sensor_id;sensor_type;location;lat;lon;timestamp;pressure;altitude;pressure_sealevel;temperature;humidity
9839;BME280;4958;48.150;11.506;2023-04-22T00:08:02;95079.19;;;13.62;60.28
9839;BME280;4958;48.150;11.506;2023-04-22T00:11:37;95072.19;;;13.69;60.22
9839;BME280;4958;48.150;11.506;2023-04-22T00:57:55;95065.13;;;13.00;63.44
9839;BME280;4958;48.150;11.506;2023-04-22T03:21:34;95051.56;;;12.27;64.88
9839;BME280;4958;48.150;11.506;2023-04-22T03:24:45;95045.00;;;12.25;65.15
9839;BME280;4958;48.150;11.506;2023-04-22T03:27:56;95046.19;;;12.16;65.48
9839;BME280;4958;48.150;11.506;2023-04-22T03:31:24;95053.31;;;12.14;65.95
9839;BME280;4958;48.150;11.506;2023-04-22T03:47:04;95069.81;;;12.19;65.36
9839;BME280;4958;48.150;11.506;2023-04-22T03:49:05;95062.47;;;12.16;65.11
9839;BME280;4958;48.150;11.506;2023-04-22T03:52:25;95060.88;;;12.22;64.68
9839;BME280;4958;48.150;11.506;2023-04-22T04:20:32;95077.16;;;12.09;65.40
9839;BME280;4958;48.150;11.506;2023-04-22T04:23:47;95073.97;;;12.14;65.54
9839;BME280;4958;48.150;11.506;2023-04-22T04:26:40;95072.38;;;12.13;65.38
9839;BME280;4958;48.150;11.506;2023-04-22T04:30:26;95061.66;;;12.16;65.55
9839;BME280;4958;48.150;11.506;2023-04-22T04:33:28;95070.41;;;12.01;65.92
9839;BME280;4958;48.150;11.506;2023-04-22T05:25:01;95055.81;;;12.86;60.57
9839;BME280;4958;48.150;11.506;2023-04-22T05:27:58;95057.59;;;12.86;60.34
9839;BME280;4958;48.150;11.506;2023-04-22T05:32:26;95062.97;;;12.84;59.89
9839;BME280;4958;48.150;11.506;2023-04-22T05:44:57;95075.13;;;13.41;58.47
9839;BME280;4958;48.150;11.506;2023-04-22T05:54:58;95093.47;;;13.71;57.67
9839;BME280;4958;48.150;11.506;2023-04-22T06:04:39;95105.44;;;14.04;54.65
9839;BME280;4958;48.150;11.506;2023-04-22T06:07:47;95109.94;;;14.08;53.46
9839;BME280;4958;48.150;11.506;2023-04-22T06:10:27;95103.94;;;14.14;53.69
9839;BME280;4958;48.150;11.506;2023-04-22T06:17:13;95106.28;;;14.23;52.26
9839;BME280;4958;48.150;11.506;2023-04-22T06:22:37;95104.72;;;14.46;52.25
9839;BME280;4958;48.150;11.506;2023-04-22T06:34:45;95116.25;;;14.75;50.14
9839;BME280;4958;48.150;11.506;2023-04-22T06:41:15;95110.50;;;15.10;50.43
9839;BME280;4958;48.150;11.506;2023-04-22T06:48:09;95111.16;;;15.24;49.21
9839;BME280;4958;48.150;11.506;2023-04-22T06:54:59;95110.66;;;15.33;48.63
9839;BME280;4958;48.150;11.506;2023-04-22T07:25:00;95092.66;;;16.75;43.33
9839;BME280;4958;48.150;11.506;2023-04-22T07:31:16;95086.09;;;16.96;44.98
9839;BME280;4958;48.150;11.506;2023-04-22T07:45:00;95088.41;;;17.72;42.72
9839;BME280;4958;48.150;11.506;2023-04-22T07:48:39;95086.56;;;17.84;42.70
9839;BME280;4958;48.150;11.506;2023-04-22T07:52:00;95091.59;;;18.03;42.13
9839;BME280;4958;48.150;11.506;2023-04-22T07:58:54;95078.91;;;18.40;39.93
9839;BME280;4958;48.150;11.506;2023-04-22T08:22:21;95094.53;;;19.50;38.12
9839;BME280;4958;48.150;11.506;2023-04-22T08:25:19;95089.59;;;19.76;37.50
9839;BME280;4958;48.150;11.506;2023-04-22T08:28:12;95086.94;;;19.97;38.46
9839;BME280;4958;48.150;11.506;2023-04-22T08:31:25;95092.63;;;20.21;37.49
9839;BME280;4958;48.150;11.506;2023-04-22T08:41:43;95095.72;;;20.82;34.88
9839;BME280;4958;48.150;11.506;2023-04-22T08:54:15;95085.56;;;20.86;35.49
9839;BME280;4958;48.150;11.506;2023-04-22T09:04:14;95068.94;;;21.12;33.02
9839;BME280;4958;48.150;11.506;2023-04-22T09:07:19;95076.88;;;21.22;33.55
9839;BME280;4958;48.150;11.506;2023-04-22T09:10:43;95068.84;;;21.44;33.28
9839;BME280;4958;48.150;11.506;2023-04-22T09:13:37;95072.03;;;21.61;34.13
9839;BME280;4958;48.150;11.506;2023-04-22T09:43:33;95048.25;;;22.95;30.54
9839;BME280;4958;48.150;11.506;2023-04-22T10:08:35;95030.53;;;23.31;29.70
9839;BME280;4958;48.150;11.506;2023-04-22T10:34:48;95015.53;;;23.36;30.01
9839;BME280;4958;48.150;11.506;2023-04-22T10:37:17;95011.56;;;23.44;30.25
9839;BME280;4958;48.150;11.506;2023-04-22T10:40:06;95014.41;;;23.58;32.19
9839;BME280;4958;48.150;11.506;2023-04-22T10:42:33;95017.53;;;23.65;31.01
9839;BME280;4958;48.150;11.506;2023-04-22T10:45:02;95008.09;;;23.49;31.74
9839;BME280;4958;48.150;11.506;2023-04-22T10:47:32;95002.66;;;23.35;32.04
9839;BME280;4958;48.150;11.506;2023-04-22T10:50:13;95002.63;;;23.45;32.55
9839;BME280;4958;48.150;11.506;2023-04-22T10:52:44;95005.19;;;23.60;32.12
9839;BME280;4958;48.150;11.506;2023-04-22T10:55:12;95002.09;;;23.87;32.71
9839;BME280;4958;48.150;11.506;2023-04-22T10:57:40;95000.88;;;24.08;32.69
9839;BME280;4958;48.150;11.506;2023-04-22T11:00:30;94986.69;;;24.09;32.91
9839;BME280;4958;48.150;11.506;2023-04-22T11:03:08;94999.03;;;24.09;32.78
9839;BME280;4958;48.150;11.506;2023-04-22T11:05:35;94994.16;;;23.97;32.33
9839;BME280;4958;48.150;11.506;2023-04-22T11:08:05;94992.16;;;23.84;32.29
9839;BME280;4958;48.150;11.506;2023-04-22T11:10:39;94991.19;;;23.70;32.04
9839;BME280;4958;48.150;11.506;2023-04-22T11:16:00;94979.56;;;23.81;31.79
9839;BME280;4958;48.150;11.506;2023-04-22T11:22:50;94981.44;;;23.70;32.04
9839;BME280;4958;48.150;11.506;2023-04-22T11:29:09;94985.84;;;23.85;31.40
9839;BME280;4958;48.150;11.506;2023-04-22T11:31:35;94979.91;;;24.03;31.87
9839;BME280;4958;48.150;11.506;2023-04-22T11:34:07;94988.22;;;24.16;31.98
9839;BME280;4958;48.150;11.506;2023-04-22T11:36:34;94978.25;;;24.13;30.83
9839;BME280;4958;48.150;11.506;2023-04-22T11:39:00;94976.81;;;23.96;30.32
9839;BME280;4958;48.150;11.506;2023-04-22T11:41:54;94981.06;;;23.87;31.10
9839;BME280;4958;48.150;11.506;2023-04-22T11:44:45;94984.31;;;23.74;31.12
9839;BME280;4958;48.150;11.506;2023-04-22T11:47:11;94982.09;;;23.52;30.90
9839;BME280;4958;48.150;11.506;2023-04-22T11:49:38;94982.44;;;23.35;31.26
9839;BME280;4958;48.150;11.506;2023-04-22T11:52:04;94982.13;;;23.42;31.31
9839;BME280;4958;48.150;11.506;2023-04-22T11:54:41;94984.88;;;23.71;32.50
9839;BME280;4958;48.150;11.506;2023-04-22T12:01:00;94979.16;;;24.32;29.77
9839;BME280;4958;48.150;11.506;2023-04-22T12:06:29;94971.34;;;24.51;34.28
9839;BME280;4958;48.150;11.506;2023-04-22T12:08:57;94976.25;;;24.33;31.75
9839;BME280;4958;48.150;11.506;2023-04-22T12:11:40;94976.13;;;24.15;30.49
9839;BME280;4958;48.150;11.506;2023-04-22T12:14:44;94967.72;;;24.13;30.76
9839;BME280;4958;48.150;11.506;2023-04-22T12:21:09;94970.63;;;24.11;30.01
9839;BME280;4958;48.150;11.506;2023-04-22T12:31:02;94953.63;;;24.61;31.92
9839;BME280;4958;48.150;11.506;2023-04-22T12:37:18;94959.13;;;24.36;30.19
9839;BME280;4958;48.150;11.506;2023-04-22T12:42:35;94956.88;;;24.19;31.06
9839;BME280;4958;48.150;11.506;2023-04-22T12:45:02;94956.53;;;24.31;31.30
9839;BME280;4958;48.150;11.506;2023-04-22T12:47:31;94958.22;;;24.45;31.19
9839;BME280;4958;48.150;11.506;2023-04-22T12:53:55;94946.41;;;24.96;29.74
9839;BME280;4958;48.150;11.506;2023-04-22T12:56:24;94945.84;;;25.18;30.82
9839;BME280;4958;48.150;11.506;2023-04-22T12:58:57;94944.06;;;25.32;30.63
9839;BME280;4958;48.150;11.506;2023-04-22T13:01:34;94937.25;;;25.31;29.19
9839;BME280;4958;48.150;11.506;2023-04-22T13:04:17;94938.53;;;25.33;29.96
9839;BME280;4958;48.150;11.506;2023-04-22T13:06:46;94940.94;;;25.30;30.84
9839;BME280;4958;48.150;11.506;2023-04-22T13:12:36;94933.09;;;25.25;30.02
9839;BME280;4958;48.150;11.506;2023-04-22T13:15:05;94932.59;;;25.23;29.96
9839;BME280;4958;48.150;11.506;2023-04-22T13:17:34;94928.78;;;25.34;30.47
9839;BME280;4958;48.150;11.506;2023-04-22T13:20:01;94929.00;;;25.37;30.36
9839;BME280;4958;48.150;11.506;2023-04-22T13:22:29;94923.56;;;25.29;30.10
9839;BME280;4958;48.150;11.506;2023-04-22T13:24:55;94924.13;;;25.26;29.67
9839;BME280;4958;48.150;11.506;2023-04-22T13:27:22;94918.56;;;24.85;29.63
9839;BME280;4958;48.150;11.506;2023-04-22T13:30:00;94910.91;;;24.64;29.44
9839;BME280;4958;48.150;11.506;2023-04-22T13:32:27;94907.47;;;24.88;30.92
9839;BME280;4958;48.150;11.506;2023-04-22T13:34:54;94910.59;;;25.13;31.55
9839;BME280;4958;48.150;11.506;2023-04-22T13:37:21;94906.91;;;25.33;31.87
9839;BME280;4958;48.150;11.506;2023-04-22T13:39:47;94903.97;;;25.35;29.86
9839;BME280;4958;48.150;11.506;2023-04-22T13:42:14;94896.56;;;25.37;30.61
9839;BME280;4958;48.150;11.506;2023-04-22T13:44:40;94900.19;;;25.41;30.99
9839;BME280;4958;48.150;11.506;2023-04-22T13:47:08;94905.34;;;25.32;30.79
9839;BME280;4958;48.150;11.506;2023-04-22T13:49:34;94903.53;;;25.28;31.62
9839;BME280;4958;48.150;11.506;2023-04-22T13:52:01;94890.59;;;25.12;29.51
9839;BME280;4958;48.150;11.506;2023-04-22T13:54:27;94895.81;;;24.94;30.47
9839;BME280;4958;48.150;11.506;2023-04-22T13:56:55;94891.22;;;24.62;30.21
9839;BME280;4958;48.150;11.506;2023-04-22T13:59:21;94891.41;;;24.65;30.58
9839;BME280;4958;48.150;11.506;2023-04-22T14:01:48;94880.56;;;24.91;30.92
9839;BME280;4958;48.150;11.506;2023-04-22T14:04:16;94875.69;;;25.22;31.52
9839;BME280;4958;48.150;11.506;2023-04-22T14:06:47;94880.66;;;25.42;30.47
9839;BME280;4958;48.150;11.506;2023-04-22T14:09:13;94880.88;;;25.45;29.92
9839;BME280;4958;48.150;11.506;2023-04-22T14:11:39;94874.19;;;25.53;30.53
9839;BME280;4958;48.150;11.506;2023-04-22T14:14:10;94876.19;;;25.42;29.42
9839;BME280;4958;48.150;11.506;2023-04-22T14:16:44;94878.53;;;25.44;30.17
9839;BME280;4958;48.150;11.506;2023-04-22T14:19:31;94875.69;;;25.40;29.83
9839;BME280;4958;48.150;11.506;2023-04-22T14:22:50;94868.53;;;25.60;30.69
9839;BME280;4958;48.150;11.506;2023-04-22T14:25:45;94868.63;;;25.73;30.78
9839;BME280;4958;48.150;11.506;2023-04-22T14:28:16;94877.53;;;25.59;29.21
9839;BME280;4958;48.150;11.506;2023-04-22T14:30:43;94878.78;;;25.61;29.89
9839;BME280;4958;48.150;11.506;2023-04-22T14:33:09;94875.75;;;25.54;29.58
9839;BME280;4958;48.150;11.506;2023-04-22T14:35:37;94872.56;;;25.38;29.57
9839;BME280;4958;48.150;11.506;2023-04-22T14:38:06;94874.56;;;25.09;30.11
9839;BME280;4958;48.150;11.506;2023-04-22T14:40:33;94871.66;;;24.87;30.64
9839;BME280;4958;48.150;11.506;2023-04-22T14:43:01;94870.28;;;24.70;30.14
9839;BME280;4958;48.150;11.506;2023-04-22T14:45:29;94867.72;;;24.65;30.38
9839;BME280;4958;48.150;11.506;2023-04-22T14:47:55;94876.91;;;24.68;30.32
9839;BME280;4958;48.150;11.506;2023-04-22T14:50:22;94869.44;;;24.56;30.45
9839;BME280;4958;48.150;11.506;2023-04-22T14:52:51;94863.66;;;24.30;31.36
9839;BME280;4958;48.150;11.506;2023-04-22T14:55:18;94862.22;;;24.14;32.30
9839;BME280;4958;48.150;11.506;2023-04-22T14:57:45;94855.97;;;23.81;31.61
9839;BME280;4958;48.150;11.506;2023-04-22T15:00:12;94869.06;;;23.57;31.98
9839;BME280;4958;48.150;11.506;2023-04-22T15:02:39;94861.44;;;23.51;32.60
9839;BME280;4958;48.150;11.506;2023-04-22T15:05:09;94861.28;;;23.42;33.34
9839;BME280;4958;48.150;11.506;2023-04-22T15:07:35;94864.13;;;23.46;33.66
9839;BME280;4958;48.150;11.506;2023-04-22T15:10:04;94866.53;;;23.42;33.80
9839;BME280;4958;48.150;11.506;2023-04-22T15:12:32;94867.06;;;23.39;34.34
9839;BME280;4958;48.150;11.506;2023-04-22T15:15:04;94863.94;;;23.32;32.98
9839;BME280;4958;48.150;11.506;2023-04-22T15:17:30;94864.78;;;23.27;33.59
9839;BME280;4958;48.150;11.506;2023-04-22T15:20:21;94869.75;;;23.29;34.49
9839;BME280;4958;48.150;11.506;2023-04-22T15:23:13;94868.00;;;23.19;34.07
9839;BME280;4958;48.150;11.506;2023-04-22T15:31:25;94865.25;;;23.34;33.48
9839;BME280;4958;48.150;11.506;2023-04-22T15:34:07;94866.25;;;23.43;34.37
9839;BME280;4958;48.150;11.506;2023-04-22T15:36:53;94860.41;;;23.52;34.51
9839;BME280;4958;48.150;11.506;2023-04-22T15:39:35;94859.84;;;23.60;34.10
9839;BME280;4958;48.150;11.506;2023-04-22T15:42:06;94858.81;;;23.51;33.58
9839;BME280;4958;48.150;11.506;2023-04-22T15:44:49;94858.63;;;23.42;33.42
9839;BME280;4958;48.150;11.506;2023-04-22T15:47:19;94864.72;;;23.37;33.93
9839;BME280;4958;48.150;11.506;2023-04-22T15:50:31;94864.59;;;23.14;34.14
9839;BME280;4958;48.150;11.506;2023-04-22T15:53:11;94868.91;;;22.99;34.29
9839;BME280;4958;48.150;11.506;2023-04-22T15:55:51;94868.44;;;22.87;34.69
9839;BME280;4958;48.150;11.506;2023-04-22T17:57:34;94884.16;;;21.26;39.03
9839;BME280;4958;48.150;11.506;2023-04-22T18:04:16;94883.06;;;21.07;39.85
9839;BME280;4958;48.150;11.506;2023-04-22T18:12:05;94893.19;;;20.83;38.67
9839;BME280;4958;48.150;11.506;2023-04-22T21:12:36;94997.69;;;18.86;47.07
9839;BME280;4958;48.150;11.506;2023-04-22T23:39:18;95039.81;;;18.06;50.10
